Time;durP1;ratioP1;P1;durP2;ratioP2;P2;SDS_P1;SDS_P2;PMS_P1;PMS_P2;Temp;Humidity;BMP_temperature;BMP_pressure;BME280_temperature;BME280_humidity;BME280_pressure;Samples;Min_cycle;Max_cycle;Signal;HPM_P1;HPM_P2
2024/02/01 00:06:40;;;;;;;18.00;8.17;;;;;;;5.49;100.00;101269.59;31721692;27;20044;-76
2024/02/01 00:21:43;;;;;;;23.73;9.77;;;;;;;5.39;100.00;101275.59;31727799;27;20451;-75
2024/02/01 00:36:45;;;;;;;21.40;9.23;;;;;;;5.86;100.00;101255.69;31708554;27;20097;-75
2024/02/01 00:51:46;;;;;;;28.27;10.77;;;;;;;5.26;100.00;101247.22;31714430;27;20052;-76
2024/02/01 01:06:49;;;;;;;22.80;10.93;;;;;;;6.04;100.00;101216.38;31710037;27;20781;-74
2024/02/01 01:21:51;;;;;;;23.50;9.87;;;;;;;5.41;100.00;101208.69;31701619;28;20074;-76
2024/02/01 01:36:53;;;;;;;23.67;9.73;;;;;;;5.30;100.00;101205.00;31740778;27;20055;-76
2024/02/01 01:51:56;;;;;;;19.80;8.87;;;;;;;5.01;100.00;101174.81;31716553;28;20067;-75
2024/02/01 02:06:58;;;;;;;29.40;14.53;;;;;;;5.50;100.00;101147.28;31732308;27;20056;-77
2024/02/01 02:22:01;;;;;;;25.00;11.37;;;;;;;5.66;100.00;101139.88;31753362;27;20051;-74
2024/02/01 02:37:03;;;;;;;22.77;9.70;;;;;;;5.42;100.00;101137.53;31727225;27;20409;-74
2024/02/01 02:52:05;;;;;;;26.93;10.83;;;;;;;5.71;100.00;101103.75;31707438;27;20043;-74
2024/02/01 03:07:08;;;;;;;25.10;11.10;;;;;;;5.03;100.00;101105.28;31733899;27;20075;-76
2024/02/01 03:22:11;;;;;;;28.67;12.67;;;;;;;5.12;100.00;101108.53;31729210;27;20059;-76
2024/02/01 03:37:14;;;;;;;31.33;13.70;;;;;;;5.24;100.00;101093.34;31720363;27;20584;-74
2024/02/01 03:52:20;;;;;;;29.93;13.20;;;;;;;5.09;100.00;101066.19;31736758;27;20390;-76
2024/02/01 04:07:23;;;;;;;;;;;;;;;5.32;100.00;101055.41;31723501;27;20062;-76
2024/02/01 04:22:25;;;;;;;25.93;11.90;;;;;;;4.93;100.00;101043.22;31710562;27;19931;-75
2024/02/01 04:37:27;;;;;;;31.10;12.37;;;;;;;5.79;100.00;101014.59;31702292;27;20054;-75
2024/02/01 04:52:30;;;;;;;24.80;12.07;;;;;;;4.80;100.00;101026.44;31715007;27;20126;-77
2024/02/01 05:07:32;;;;;;;38.80;14.27;;;;;;;4.79;100.00;101027.56;31723756;27;20130;-74
2024/02/01 05:22:41;;;;;;;33.03;13.37;;;;;;;5.34;100.00;101030.84;31706554;27;20741;-75
2024/02/01 05:37:46;;;;;;;38.10;14.07;;;;;;;4.66;100.00;101018.88;31708353;27;20075;-75
2024/02/01 05:52:49;;;;;;;27.97;14.23;;;;;;;4.34;100.00;101010.19;31724615;27;20043;-76
2024/02/01 06:07:52;;;;;;;34.17;14.17;;;;;;;4.36;100.00;100999.84;31744723;27;20048;-75
2024/02/01 06:22:54;;;;;;;30.13;14.27;;;;;;;5.10;100.00;100960.09;31727934;27;20142;-78
2024/02/01 06:38:14;;;;;;;29.13;12.17;;;;;;;7.95;100.00;100944.94;31715685;27;20105;-76
2024/02/01 06:53:20;;;;;;;33.03;13.27;;;;;;;10.21;99.38;100932.53;31730004;27;20117;-74
2024/02/01 07:08:26;;;;;;;31.87;13.87;;;;;;;10.32;88.98;100920.88;31753045;27;20153;-75
2024/02/01 07:23:34;;;;;;;36.43;14.00;;;;;;;8.59;100.00;100928.16;31731380;27;20082;-77
2024/02/01 08:09:18;;;;;;;28.97;12.77;;;;;;;8.07;100.00;100892.44;31720720;27;20043;-77
2024/02/01 08:24:22;;;;;;;30.03;12.73;;;;;;;9.92;100.00;100872.19;31724152;27;20114;-77
2024/02/01 08:39:25;;;;;;;28.00;13.70;;;;;;;9.65;98.55;100876.59;31720591;27;20059;-75
2024/02/01 08:54:27;;;;;;;26.67;13.37;;;;;;;10.28;95.11;100855.75;31694970;27;20485;-76
2024/02/01 09:09:30;;;;;;;28.87;13.33;;;;;;;10.30;93.23;100837.13;31703768;28;20043;-77
2024/02/01 09:24:32;;;;;;;30.50;12.00;;;;;;;12.12;72.52;100822.41;31699428;28;20079;-77
2024/02/01 09:39:39;;;;;;;33.07;13.87;;;;;;;11.51;74.34;100814.28;31712372;28;20079;-77
2024/02/01 09:54:46;;;;;;;30.63;14.47;;;;;;;13.63;64.58;100787.44;31710621;28;20287;-78
2024/02/01 10:09:51;;;;;;;27.73;13.80;;;;;;;14.97;54.87;100788.91;31766320;28;20040;-79
2024/02/01 10:24:56;;;;;;;36.37;13.17;;;;;;;15.17;53.10;100769.59;31757141;28;20052;-85
2024/02/01 10:40:06;;;;;;;20.43;10.63;;;;;;;15.76;51.50;100749.16;31718630;27;20565;-76
2024/02/01 10:55:09;;;;;;;26.77;11.03;;;;;;;14.54;56.36;100736.56;31695599;28;20146;-76
2024/02/01 11:10:13;;;;;;;23.33;10.93;;;;;;;16.41;52.28;100715.75;31718042;27;20062;-76
2024/02/01 11:25:15;;;;;;;23.27;12.07;;;;;;;14.95;56.48;100681.19;31714140;27;20052;-76
2024/02/01 11:40:18;;;;;;;27.20;11.43;;;;;;;14.13;62.42;100679.84;31721866;27;20044;-76
2024/02/01 11:55:20;;;;;;;24.47;11.30;;;;;;;14.28;66.53;100648.25;31706787;27;20135;-75
2024/02/01 12:10:22;;;;;;;35.67;11.73;;;;;;;15.94;59.29;100648.06;31706179;27;20054;-76
2024/02/01 12:25:24;;;;;;;21.30;10.57;;;;;;;17.25;51.61;100614.41;31713668;27;20043;-76
2024/02/01 12:40:29;;;;;;;28.10;11.73;;;;;;;17.84;49.17;100613.22;31700502;27;20501;-77
2024/02/01 12:55:31;;;;;;;24.50;11.67;;;;;;;14.89;55.19;100609.09;31738609;27;20075;-77
2024/02/01 13:10:38;;;;;;;22.17;10.40;;;;;;;12.66;72.74;100596.28;31716380;27;20047;-78
2024/02/01 13:25:43;;;;;;;22.60;11.60;;;;;;;11.03;93.42;100567.19;31735589;28;20047;-88
2024/02/01 13:40:47;;;;;;;21.47;9.90;;;;;;;10.76;100.00;100569.88;31787671;27;20044;-81
2024/02/01 13:55:49;;;;;;;25.33;11.10;;;;;;;10.55;100.00;100549.97;31790105;28;20063;-83
2024/02/01 14:10:52;;;;;;;29.10;11.83;;;;;;;10.09;100.00;100534.19;31755540;27;20046;-86
2024/02/01 14:25:56;;;;;;;26.10;12.20;;;;;;;9.65;100.00;100526.91;31776487;27;20472;-77
2024/02/01 14:40:59;;;;;;;34.43;12.47;;;;;;;9.15;100.00;100502.91;31769277;27;20127;-76
2024/02/01 14:56:01;;;;;;;23.80;12.90;;;;;;;8.93;100.00;100500.75;31755621;27;20075;-76
2024/02/01 15:11:03;;;;;;;26.70;12.60;;;;;;;8.55;100.00;100495.94;31732775;27;20052;-76
2024/02/01 15:26:05;;;;;;;29.23;12.53;;;;;;;8.35;100.00;100481.34;31711147;28;20074;-77
2024/02/01 15:41:07;;;;;;;25.30;11.90;;;;;;;8.17;100.00;100480.63;31721603;27;20135;-79
2024/02/01 15:56:10;;;;;;;29.23;13.30;;;;;;;8.13;100.00;100469.06;31747327;27;20055;-78
2024/02/01 16:11:15;;;;;;;26.10;11.77;;;;;;;7.85;100.00;100464.50;31733436;27;20142;-76
2024/02/01 16:26:17;;;;;;;29.77;11.73;;;;;;;7.48;100.00;100456.88;31757249;27;20079;-80
2024/02/01 16:41:31;;;;;;;31.70;14.20;;;;;;;7.45;100.00;100442.22;31761993;27;20046;-81
2024/02/01 16:56:34;;;;;;;29.70;12.80;;;;;;;6.87;100.00;100434.50;31722625;27;20087;-81
2024/02/01 17:11:43;;;;;;;35.10;13.80;;;;;;;6.50;100.00;100432.16;31732325;27;20044;-81
2024/02/01 17:26:46;;;;;;;29.97;14.57;;;;;;;6.48;100.00;100418.28;31745252;27;20055;-82
2024/02/01 17:41:51;;;;;;;32.67;13.60;;;;;;;6.55;100.00;100417.53;31755553;27;20056;-78
2024/02/01 17:57:02;;;;;;;34.67;14.60;;;;;;;6.61;100.00;100400.59;31752331;28;20116;-82
2024/02/01 18:12:08;;;;;;;32.73;14.37;;;;;;;6.52;100.00;100372.44;31699817;28;20089;-80
2024/02/01 18:27:19;;;;;;;;;;;;;;;6.41;100.00;100375.09;31749817;28;20051;-83
2024/02/01 18:42:42;;;;;;;41.20;17.07;;;;;;;6.27;100.00;100375.88;31725135;28;19920;-79
2024/02/01 18:57:44;;;;;;;38.23;16.07;;;;;;;6.01;100.00;100360.00;31779805;28;20059;-78
2024/02/01 19:12:47;;;;;;;39.43;16.83;;;;;;;5.87;100.00;100341.09;31762808;27;20055;-77
2024/02/01 19:28:00;;;;;;;37.47;16.77;;;;;;;5.95;100.00;100299.53;31710745;27;20059;-76
2024/02/01 19:43:04;;;;;;;35.00;15.90;;;;;;;5.90;100.00;100271.06;31707883;27;20047;-79
2024/02/01 19:58:06;;;;;;;36.50;17.50;;;;;;;5.87;100.00;100260.25;31723368;27;20409;-75
2024/02/01 20:13:09;;;;;;;34.57;14.47;;;;;;;5.71;100.00;100247.13;31707378;27;20048;-79
2024/02/01 20:28:43;;;;;;;81.93;36.63;;;;;;;5.53;100.00;100220.16;31715264;27;20058;-77
2024/02/01 20:43:48;;;;;;;44.43;22.53;;;;;;;5.35;100.00;100162.81;31709217;27;20425;-77
2024/02/01 20:58:50;;;;;;;28.63;13.37;;;;;;;5.42;100.00;100157.44;31698548;27;20079;-82
2024/02/01 21:13:52;;;;;;;33.60;13.53;;;;;;;5.47;100.00;100178.59;31713237;27;20083;-80
2024/02/01 21:29:08;;;;;;;37.07;17.63;;;;;;;5.34;100.00;100145.09;31722260;27;20047;-77
2024/02/01 21:44:14;;;;;;;22.43;11.13;;;;;;;5.13;100.00;100127.00;31697921;27;20074;-80
2024/02/01 21:59:16;;;;;;;35.40;17.30;;;;;;;5.06;100.00;100121.56;31698003;28;20046;-77
2024/02/01 22:14:18;;;;;;;26.47;13.30;;;;;;;5.06;100.00;100111.59;31658264;28;20593;-77
2024/02/01 22:29:20;;;;;;;35.57;16.37;;;;;;;5.13;100.00;100073.16;31687035;28;20126;-78
2024/02/01 22:44:22;;;;;;;34.47;16.13;;;;;;;5.14;100.00;100053.19;31711476;27;20052;-76
2024/02/01 22:59:24;;;;;;;37.80;19.57;;;;;;;5.17;100.00;100047.03;31755925;27;20052;-79
2024/02/01 23:14:26;;;;;;;38.63;19.50;;;;;;;5.13;100.00;100047.03;31708795;27;20097;-80
2024/02/01 23:29:28;;;;;;;38.67;14.47;;;;;;;5.21;100.00;100063.94;31711743;27;20058;-80
2024/02/01 23:44:30;;;;;;;29.30;14.60;;;;;;;5.44;100.00;100071.66;31751810;27;20062;-81
2024/02/01 23:59:32;;;;;;;39.93;15.17;;;;;;;5.52;100.00;100051.66;31768450;27;20039;-79
